METAR Data
IDs: Format: Raw Decoded Include TAF

Data at: 0740 UTC 23 Feb 2019

KMWL 230653Z AUTO 12006KT 1/4SM FG VV002 09/08 A2977 RMK AO2 SLP078 T00890083
KMWL 230553Z AUTO 11006KT 1/4SM FG VV002 09/08 A2981 RMK AO2 SLP090 T00890083 10094 20089 401170072 58022
KMWL 230453Z AUTO 12007KT 1/4SM FG VV002 09/08 A2983 RMK AO2 SLP100 T00890083
KMWL 230424Z AUTO 15006KT 1/2SM FG OVC002 09/08 A2985 RMK AO2 T00890083
KMWL 230353Z AUTO 16008KT 1 3/4SM BR OVC002 09/08 A2986 RMK AO2 SLP110 T00890083
KMWL 230332Z AUTO 15008KT 1 3/4SM BR OVC002 09/08 A2988 RMK AO2 T00940083
KMWL 230253Z AUTO 13008KT 2 1/2SM BR OVC003 09/08 A2987 RMK AO2 SLP113 T00940083 50000
KMWL 230153Z AUTO 12009KT 3SM BR OVC002 09/08 A2987 RMK AO2 CIG 002V006 SLP113 T00940083
KMWL 230129Z AUTO 10007KT 2SM BR OVC002 09/08 A2987 RMK AO2 T00940083
KMWL 230108Z AUTO 11008KT 1 3/4SM BR OVC002 09/08 A2988 RMK AO2 T00940083
KMWL 230053Z AUTO 11010KT 2SM BR OVC002 09/08 A2987 RMK AO2 SLP112 T00940083
KMWL 230051Z AUTO 11009KT 2SM BR OVC002 09/08 A2987 RMK AO2
KMWL 230002Z AUTO 11006KT 1 1/2SM BR OVC004 09/08 A2988 RMK AO2 T00940083
KMWL 222353Z AUTO 09009KT 1 1/2SM BR OVC005 09/08 A2987 RMK AO2 SLP114 T00940083 10117 20083 58007
KMWL 222318Z AUTO 11008KT 2SM BR OVC006 10/08 A2988 RMK AO2 CIG 005V010 T01000078
KMWL 222253Z AUTO 12007KT 4SM BR OVC008 10/08 A2989 RMK AO2 SLP119 T01000083
KMWL 222213Z AUTO 10006KT 3SM HZ OVC009 11/08 A2990 RMK AO2 T01060078
KMWL 222205Z AUTO 12006KT 2 1/2SM HZ OVC009 11/08 A2990 RMK AO2 T01060078
KMWL 222153Z AUTO 11006KT 3SM HZ OVC010 11/08 A2990 RMK AO2 SLP121 T01060078
KMWL 222053Z AUTO 10007KT 10SM OVC012 12/08 A2990 RMK AO2 SLP121 T01170078 56031
KMWL 222014Z AUTO 13007KT 10SM OVC011 11/07 A2990 RMK AO2 T01110072
KMWL 221953Z AUTO 11006KT 10SM OVC008 11/08 A2991 RMK AO2 SLP126 T01060078
KMWL 221853Z AUTO 10006KT 10SM OVC007 09/08 A2995 RMK AO2 SLP139 T00940078
KMWL 221838Z AUTO 09007KT 7SM OVC005 09/07 A2996 RMK AO2 T00890072
KMWL 221830Z AUTO 10008KT 3SM BR OVC004 09/08 A2996 RMK AO2 T00890078
KMWL 221753Z AUTO 08008KT 1 1/2SM BR OVC004 08/07 A2999 RMK AO2 SLP153 60001 T00830072 10083 20072 58004
KMWL 221741Z AUTO 08007KT 1 1/4SM BR OVC004 08/07 A3000 RMK AO2 T00830072
KMWL 221719Z AUTO 06007KT 2SM BR OVC004 08/07 A3000 RMK AO2 T00830072
KMWL 221653Z AUTO 06009KT 3SM BR OVC004 08/07 A3000 RMK AO2 SLP156 T00830067
KMWL 221553Z AUTO 06008KT 5SM BR OVC004 08/07 A3002 RMK AO2 RAB1459E16B20E34 SLP162 P0001 T00830072
KMWL 221534Z AUTO 06007KT 4SM BR OVC004 08/07 A3001 RMK AO2 RAB1459E16B20E34 P0001 T00830072
KMWL 221526Z AUTO 06007KT 2 1/2SM -RA BR OVC004 08/07 A3001 RMK AO2 RAB1459E16B20 P0001 T00830072
KMWL 221518Z AUTO 05005KT 3SM BR OVC003 08/07 A3001 RMK AO2 RAB1459E16 P0000 T00780067
KMWL 221453Z AUTO 03007KT 1SM BR OVC002 08/07 A3000 RMK AO2 RAB1358E23B44E53 SLP158 P0000 60000 T00780067 51021
KMWL 221353Z AUTO 06006KT 3/4SM BR OVC003 08/07 A2998 RMK AO2 SLP149 T00780067
KMWL 221344Z AUTO 00000KT 1/2SM FG OVC003 08/07 A3000 RMK AO2 T00780067
KMWL 221306Z AUTO 00000KT 1SM BR OVC002 08/07 A2999 RMK AO2 T00780067
KMWL 221253Z AUTO 13003KT 3/4SM BR OVC002 08/07 A2999 RMK AO2 RAB26E38 SLP154 P0000 T00780067
KMWL 221208Z AUTO 16005KT 1 3/4SM BR OVC003 08/07 A2998 RMK AO2 PRESRR T00780067
KMWL 221153Z AUTO 10007KT 2SM BR OVC003 08/07 A2994 RMK AO2 SLP136 70005 T00780067 10083 20072 55003
KMWL 221122Z AUTO 11009KT 2 1/2SM BR OVC003 08/07 A2993 RMK AO2 T00780067
KMWL 221108Z AUTO 08008KT 1 3/4SM BR OVC003 08/07 A2990 RMK AO2 T00780067
KMWL 221053Z AUTO 09009KT 2SM BR OVC003 08/07 A2991 RMK AO2 SLP125 T00780067
KMWL 221021Z AUTO 11008KT 3SM BR OVC003 08/07 A2994 RMK AO2 T00780067
KMWL 221007Z AUTO 13006KT 2 1/2SM BR OVC002 08/07 A2995 RMK AO2 PRESRR T00780067
KMWL 220953Z AUTO 09006KT 1 3/4SM BR OVC002 08/07 A2992 RMK AO2 SLP129 T00780067
KMWL 220853Z AUTO 09007KT 1 1/4SM BR OVC003 07/07 A2995 RMK AO2 SLP139 T00720067 56016
KMWL 220837Z AUTO 11009KT 1 3/4SM BR OVC004 07/06 A2996 RMK AO2 T00720061
KMWL 220834Z AUTO 11009KT 2SM BR OVC005 07/06 A2996 RMK AO2 T00720061
KMWL 220753Z AUTO 09008KT 4SM BR OVC007 08/06 A2996 RMK AO2 CIG 005V009 SLP144 T00780056
KMWL 220726Z AUTO 10006KT 7SM OVC009 08/05 A2998 RMK AO2 T00780050
KMWL 220653Z AUTO 10009KT 9SM OVC011 08/05 A2997 RMK AO2 SLP148 T00830050
KMWL 220616Z AUTO 11006KT 10SM OVC014 08/04 A2997 RMK AO2 T00830039
KMWL 220553Z AUTO 10004KT 10SM OVC016 08/04 A2999 RMK AO2 SLP155 T00830039 10100 20083 401220033 53010
KMWL 220453Z AUTO 09004KT 10SM OVC016 09/03 A2998 RMK AO2 SLP151 T00890033
KMWL 220410Z AUTO 09008KT 10SM BKN016 OVC029 09/03 A2996 RMK AO2 T00890033
KMWL 220353Z AUTO 09010KT 10SM OVC030 09/03 A2995 RMK AO2 SLP140 T00890033
KMWL 220253Z AUTO 10006KT 10SM FEW050 09/03 A2996 RMK AO2 SLP144 T00890028 51013
KMWL 220153Z AUTO 10009KT 10SM BKN050 09/03 A2995 RMK AO2 SLP141 T00890033
KMWL 220053Z AUTO 05004KT 10SM CLR 09/03 A2994 RMK AO2 SLP139 T00940028
KMWL 212353Z AUTO 09007KT 10SM CLR 10/02 A2993 RMK AO2 SLP132 T01000022 10122 20083 55003
KMWL 212253Z AUTO 12015KT 10SM CLR 11/02 A2988 RMK AO2 SLP116 T01060017
KMWL 212153Z AUTO 11015G19KT 10SM CLR 12/01 A2991 RMK AO2 SLP126 T01170011
KMWL 212053Z AUTO 12010KT 10SM BKN065 12/02 A2993 RMK AO2 SLP135 T01170022 56024
KMWL 211953Z AUTO 10010KT 10SM OVC060 11/02 A2995 RMK AO2 SLP140 T01060017